sensor_id;sensor_type;location;lat;lon;timestamp;P1;durP1;ratioP1;P2;durP2;ratioP2
24485;SDS011;13449;49.374;8.584;2023-04-24T00:01:53;4.43;;;0.63;;
24485;SDS011;13449;49.374;8.584;2023-04-24T00:04:20;1.25;;;0.52;;
24485;SDS011;13449;49.374;8.584;2023-04-24T00:06:47;2.90;;;0.68;;
24485;SDS011;13449;49.374;8.584;2023-04-24T00:09:20;1.23;;;0.50;;
24485;SDS011;13449;49.374;8.584;2023-04-24T00:11:47;1.65;;;0.40;;
24485;SDS011;13449;49.374;8.584;2023-04-24T00:14:13;0.77;;;0.47;;
24485;SDS011;13449;49.374;8.584;2023-04-24T00:16:40;2.38;;;0.40;;
24485;SDS011;13449;49.374;8.584;2023-04-24T00:19:06;0.73;;;0.40;;
24485;SDS011;13449;49.374;8.584;2023-04-24T00:21:33;5.78;;;0.60;;
24485;SDS011;13449;49.374;8.584;2023-04-24T00:23:59;0.50;;;0.50;;
24485;SDS011;13449;49.374;8.584;2023-04-24T00:26:26;0.57;;;0.50;;
24485;SDS011;13449;49.374;8.584;2023-04-24T00:28:53;1.92;;;0.55;;
24485;SDS011;13449;49.374;8.584;2023-04-24T00:31:21;2.22;;;0.68;;
24485;SDS011;13449;49.374;8.584;2023-04-24T00:33:48;1.38;;;0.60;;
24485;SDS011;13449;49.374;8.584;2023-04-24T00:36:14;4.07;;;0.40;;
24485;SDS011;13449;49.374;8.584;2023-04-24T00:38:41;1.38;;;0.65;;
24485;SDS011;13449;49.374;8.584;2023-04-24T00:41:07;1.67;;;0.80;;
24485;SDS011;13449;49.374;8.584;2023-04-24T00:43:34;0.80;;;0.47;;
24485;SDS011;13449;49.374;8.584;2023-04-24T00:46:00;0.60;;;0.60;;
24485;SDS011;13449;49.374;8.584;2023-04-24T00:48:27;1.08;;;0.50;;
24485;SDS011;13449;49.374;8.584;2023-04-24T00:50:54;5.07;;;0.52;;
24485;SDS011;13449;49.374;8.584;2023-04-24T00:53:21;1.05;;;0.60;;
24485;SDS011;13449;49.374;8.584;2023-04-24T00:55:52;1.00;;;0.50;;
24485;SDS011;13449;49.374;8.584;2023-04-24T00:58:19;2.58;;;0.55;;
24485;SDS011;13449;49.374;8.584;2023-04-24T01:00:46;2.03;;;0.80;;
24485;SDS011;13449;49.374;8.584;2023-04-24T01:03:17;4.20;;;0.80;;
24485;SDS011;13449;49.374;8.584;2023-04-24T01:05:44;1.75;;;0.40;;
24485;SDS011;13449;49.374;8.584;2023-04-24T01:08:14;0.98;;;0.68;;
24485;SDS011;13449;49.374;8.584;2023-04-24T01:10:41;2.17;;;0.80;;
24485;SDS011;13449;49.374;8.584;2023-04-24T01:13:07;0.73;;;0.60;;
24485;SDS011;13449;49.374;8.584;2023-04-24T01:15:34;1.80;;;0.55;;
24485;SDS011;13449;49.374;8.584;2023-04-24T01:18:01;0.50;;;0.45;;
24485;SDS011;13449;49.374;8.584;2023-04-24T01:20:30;3.70;;;0.55;;
24485;SDS011;13449;49.374;8.584;2023-04-24T01:22:58;1.50;;;0.65;;
24485;SDS011;13449;49.374;8.584;2023-04-24T01:25:28;0.75;;;0.50;;
24485;SDS011;13449;49.374;8.584;2023-04-24T01:27:54;3.00;;;0.65;;
24485;SDS011;13449;49.374;8.584;2023-04-24T01:30:21;0.57;;;0.50;;
24485;SDS011;13449;49.374;8.584;2023-04-24T01:32:48;1.00;;;0.50;;
24485;SDS011;13449;49.374;8.584;2023-04-24T01:35:14;4.00;;;0.50;;
24485;SDS011;13449;49.374;8.584;2023-04-24T01:37:41;1.13;;;0.50;;
24485;SDS011;13449;49.374;8.584;2023-04-24T01:40:07;2.08;;;0.85;;
24485;SDS011;13449;49.374;8.584;2023-04-24T01:42:37;2.00;;;0.80;;
24485;SDS011;13449;49.374;8.584;2023-04-24T01:45:04;2.80;;;0.65;;
24485;SDS011;13449;49.374;8.584;2023-04-24T01:47:31;0.32;;;0.32;;
24485;SDS011;13449;49.374;8.584;2023-04-24T01:49:58;3.33;;;0.50;;
24485;SDS011;13449;49.374;8.584;2023-04-24T01:52:24;1.15;;;0.60;;
24485;SDS011;13449;49.374;8.584;2023-04-24T01:54:51;1.67;;;0.80;;
24485;SDS011;13449;49.374;8.584;2023-04-24T01:57:21;1.58;;;0.70;;
24485;SDS011;13449;49.374;8.584;2023-04-24T01:59:48;0.50;;;0.50;;
24485;SDS011;13449;49.374;8.584;2023-04-24T02:02:14;4.40;;;0.52;;
24485;SDS011;13449;49.374;8.584;2023-04-24T02:04:41;0.70;;;0.70;;
24485;SDS011;13449;49.374;8.584;2023-04-24T02:07:08;2.13;;;1.00;;
24485;SDS011;13449;49.374;8.584;2023-04-24T02:09:35;3.80;;;0.45;;
24485;SDS011;13449;49.374;8.584;2023-04-24T02:12:01;1.33;;;0.38;;
24485;SDS011;13449;49.374;8.584;2023-04-24T02:14:28;1.70;;;0.40;;
24485;SDS011;13449;49.374;8.584;2023-04-24T02:16:54;0.60;;;0.57;;
24485;SDS011;13449;49.374;8.584;2023-04-24T02:19:21;6.80;;;0.60;;
24485;SDS011;13449;49.374;8.584;2023-04-24T02:21:47;0.90;;;0.50;;
24485;SDS011;13449;49.374;8.584;2023-04-24T02:24:13;1.95;;;0.70;;
24485;SDS011;13449;49.374;8.584;2023-04-24T02:26:40;2.50;;;0.50;;
24485;SDS011;13449;49.374;8.584;2023-04-24T02:29:07;4.40;;;0.60;;
24485;SDS011;13449;49.374;8.584;2023-04-24T02:31:36;0.55;;;0.50;;
24485;SDS011;13449;49.374;8.584;2023-04-24T02:34:02;2.95;;;0.47;;
24485;SDS011;13449;49.374;8.584;2023-04-24T02:36:29;4.88;;;0.40;;
24485;SDS011;13449;49.374;8.584;2023-04-24T02:38:58;1.48;;;0.60;;
24485;SDS011;13449;49.374;8.584;2023-04-24T02:41:24;2.10;;;0.70;;
24485;SDS011;13449;49.374;8.584;2023-04-24T02:43:58;1.00;;;0.50;;
24485;SDS011;13449;49.374;8.584;2023-04-24T02:46:29;1.02;;;0.80;;
24485;SDS011;13449;49.374;8.584;2023-04-24T02:48:55;1.23;;;0.50;;
24485;SDS011;13449;49.374;8.584;2023-04-24T02:51:22;1.95;;;0.63;;
24485;SDS011;13449;49.374;8.584;2023-04-24T02:53:51;5.95;;;0.57;;
24485;SDS011;13449;49.374;8.584;2023-04-24T02:56:17;3.80;;;0.60;;
24485;SDS011;13449;49.374;8.584;2023-04-24T02:58:44;10.90;;;1.95;;
24485;SDS011;13449;49.374;8.584;2023-04-24T03:01:10;0.88;;;0.82;;
24485;SDS011;13449;49.374;8.584;2023-04-24T03:03:37;4.82;;;1.48;;
24485;SDS011;13449;49.374;8.584;2023-04-24T03:06:07;2.33;;;1.88;;
24485;SDS011;13449;49.374;8.584;2023-04-24T03:08:34;2.33;;;1.30;;
24485;SDS011;13449;49.374;8.584;2023-04-24T03:11:03;3.50;;;1.88;;
24485;SDS011;13449;49.374;8.584;2023-04-24T03:13:33;2.63;;;1.45;;
24485;SDS011;13449;49.374;8.584;2023-04-24T03:16:00;3.53;;;1.35;;
24485;SDS011;13449;49.374;8.584;2023-04-24T03:18:26;2.42;;;1.20;;
24485;SDS011;13449;49.374;8.584;2023-04-24T03:20:53;1.52;;;1.20;;
24485;SDS011;13449;49.374;8.584;2023-04-24T03:23:19;1.65;;;0.90;;
24485;SDS011;13449;49.374;8.584;2023-04-24T03:25:49;8.25;;;1.83;;
24485;SDS011;13449;49.374;8.584;2023-04-24T03:28:15;1.02;;;1.00;;
24485;SDS011;13449;49.374;8.584;2023-04-24T03:30:42;3.20;;;1.17;;
24485;SDS011;13449;49.374;8.584;2023-04-24T03:33:08;3.65;;;1.40;;
24485;SDS011;13449;49.374;8.584;2023-04-24T03:35:35;4.10;;;1.10;;
24485;SDS011;13449;49.374;8.584;2023-04-24T03:38:02;2.63;;;1.65;;
24485;SDS011;13449;49.374;8.584;2023-04-24T03:40:30;1.58;;;1.13;;
24485;SDS011;13449;49.374;8.584;2023-04-24T03:42:59;3.55;;;1.60;;
24485;SDS011;13449;49.374;8.584;2023-04-24T03:45:28;1.83;;;1.02;;
24485;SDS011;13449;49.374;8.584;2023-04-24T03:47:55;1.83;;;1.27;;
24485;SDS011;13449;49.374;8.584;2023-04-24T03:50:21;3.53;;;1.50;;
24485;SDS011;13449;49.374;8.584;2023-04-24T03:52:52;4.00;;;1.85;;
24485;SDS011;13449;49.374;8.584;2023-04-24T03:55:21;1.33;;;1.23;;
24485;SDS011;13449;49.374;8.584;2023-04-24T03:57:48;2.33;;;1.40;;
24485;SDS011;13449;49.374;8.584;2023-04-24T04:00:17;4.88;;;1.45;;
24485;SDS011;13449;49.374;8.584;2023-04-24T04:02:47;1.48;;;1.35;;
24485;SDS011;13449;49.374;8.584;2023-04-24T04:05:13;2.17;;;1.40;;
24485;SDS011;13449;49.374;8.584;2023-04-24T04:07:40;1.38;;;1.20;;
24485;SDS011;13449;49.374;8.584;2023-04-24T04:10:09;1.17;;;1.02;;
24485;SDS011;13449;49.374;8.584;2023-04-24T04:12:36;1.52;;;1.42;;
24485;SDS011;13449;49.374;8.584;2023-04-24T04:15:02;2.35;;;1.55;;
24485;SDS011;13449;49.374;8.584;2023-04-24T04:17:29;3.38;;;1.55;;
24485;SDS011;13449;49.374;8.584;2023-04-24T04:19:56;2.78;;;1.52;;
24485;SDS011;13449;49.374;8.584;2023-04-24T04:22:23;2.65;;;1.75;;
24485;SDS011;13449;49.374;8.584;2023-04-24T04:24:49;3.20;;;2.20;;
24485;SDS011;13449;49.374;8.584;2023-04-24T04:27:18;6.35;;;1.45;;
24485;SDS011;13449;49.374;8.584;2023-04-24T04:29:44;2.03;;;1.58;;
24485;SDS011;13449;49.374;8.584;2023-04-24T04:32:11;1.38;;;1.27;;
24485;SDS011;13449;49.374;8.584;2023-04-24T04:34:37;3.67;;;2.40;;
24485;SDS011;13449;49.374;8.584;2023-04-24T04:37:06;6.75;;;2.53;;
24485;SDS011;13449;49.374;8.584;2023-04-24T04:39:35;1.92;;;1.70;;
24485;SDS011;13449;49.374;8.584;2023-04-24T04:42:01;2.90;;;2.05;;
24485;SDS011;13449;49.374;8.584;2023-04-24T04:44:28;5.78;;;1.55;;
24485;SDS011;13449;49.374;8.584;2023-04-24T04:46:55;5.60;;;1.70;;
24485;SDS011;13449;49.374;8.584;2023-04-24T04:49:22;3.35;;;1.40;;
24485;SDS011;13449;49.374;8.584;2023-04-24T04:51:50;2.65;;;1.23;;
24485;SDS011;13449;49.374;8.584;2023-04-24T04:54:17;6.47;;;1.98;;
24485;SDS011;13449;49.374;8.584;2023-04-24T04:56:43;6.63;;;2.17;;
24485;SDS011;13449;49.374;8.584;2023-04-24T04:59:09;2.05;;;1.70;;
24485;SDS011;13449;49.374;8.584;2023-04-24T05:01:39;3.35;;;2.13;;
24485;SDS011;13449;49.374;8.584;2023-04-24T05:04:08;4.30;;;2.50;;
24485;SDS011;13449;49.374;8.584;2023-04-24T05:06:35;4.93;;;2.03;;
24485;SDS011;13449;49.374;8.584;2023-04-24T05:09:01;9.05;;;2.08;;
24485;SDS011;13449;49.374;8.584;2023-04-24T05:11:29;3.75;;;1.55;;
24485;SDS011;13449;49.374;8.584;2023-04-24T05:13:56;2.85;;;1.80;;
24485;SDS011;13449;49.374;8.584;2023-04-24T05:16:22;7.03;;;1.73;;
24485;SDS011;13449;49.374;8.584;2023-04-24T05:18:49;4.63;;;1.85;;
24485;SDS011;13449;49.374;8.584;2023-04-24T05:21:15;4.80;;;2.65;;
24485;SDS011;13449;49.374;8.584;2023-04-24T05:23:42;4.55;;;2.05;;
24485;SDS011;13449;49.374;8.584;2023-04-24T05:26:08;3.63;;;2.15;;
24485;SDS011;13449;49.374;8.584;2023-04-24T05:28:35;3.63;;;2.35;;
24485;SDS011;13449;49.374;8.584;2023-04-24T05:31:02;3.25;;;2.40;;
24485;SDS011;13449;49.374;8.584;2023-04-24T05:33:29;3.58;;;2.75;;
24485;SDS011;13449;49.374;8.584;2023-04-24T05:35:56;5.15;;;2.85;;
24485;SDS011;13449;49.374;8.584;2023-04-24T05:38:26;5.15;;;3.08;;
24485;SDS011;13449;49.374;8.584;2023-04-24T05:40:52;5.07;;;2.95;;
24485;SDS011;13449;49.374;8.584;2023-04-24T05:43:21;7.35;;;2.90;;
24485;SDS011;13449;49.374;8.584;2023-04-24T05:45:47;10.82;;;2.97;;
24485;SDS011;13449;49.374;8.584;2023-04-24T05:48:16;2.75;;;2.47;;
24485;SDS011;13449;49.374;8.584;2023-04-24T05:50:45;3.42;;;2.38;;
24485;SDS011;13449;49.374;8.584;2023-04-24T05:53:14;5.85;;;2.70;;
24485;SDS011;13449;49.374;8.584;2023-04-24T05:55:40;3.22;;;2.70;;
24485;SDS011;13449;49.374;8.584;2023-04-24T05:58:09;3.78;;;2.97;;
24485;SDS011;13449;49.374;8.584;2023-04-24T06:00:35;2.70;;;2.42;;
24485;SDS011;13449;49.374;8.584;2023-04-24T06:03:02;3.15;;;2.47;;
24485;SDS011;13449;49.374;8.584;2023-04-24T06:05:30;7.82;;;2.67;;
24485;SDS011;13449;49.374;8.584;2023-04-24T06:07:57;3.03;;;2.70;;
24485;SDS011;13449;49.374;8.584;2023-04-24T06:10:23;4.13;;;3.00;;
24485;SDS011;13449;49.374;8.584;2023-04-24T06:12:50;2.95;;;2.53;;
24485;SDS011;13449;49.374;8.584;2023-04-24T06:15:18;4.95;;;2.63;;
24485;SDS011;13449;49.374;8.584;2023-04-24T06:17:45;6.22;;;2.70;;
24485;SDS011;13449;49.374;8.584;2023-04-24T06:20:14;3.75;;;2.40;;
24485;SDS011;13449;49.374;8.584;2023-04-24T06:22:45;5.18;;;2.47;;
24485;SDS011;13449;49.374;8.584;2023-04-24T06:25:12;2.33;;;1.95;;
24485;SDS011;13449;49.374;8.584;2023-04-24T06:27:41;7.72;;;2.08;;
24485;SDS011;13449;49.374;8.584;2023-04-24T06:30:08;2.72;;;2.28;;
24485;SDS011;13449;49.374;8.584;2023-04-24T06:32:35;4.78;;;1.88;;
24485;SDS011;13449;49.374;8.584;2023-04-24T06:35:04;9.82;;;1.73;;
24485;SDS011;13449;49.374;8.584;2023-04-24T06:37:36;7.32;;;2.65;;
24485;SDS011;13449;49.374;8.584;2023-04-24T06:40:03;3.95;;;1.70;;
24485;SDS011;13449;49.374;8.584;2023-04-24T06:42:32;2.13;;;1.83;;
24485;SDS011;13449;49.374;8.584;2023-04-24T06:45:04;2.45;;;2.15;;
24485;SDS011;13449;49.374;8.584;2023-04-24T06:47:33;7.70;;;2.10;;
24485;SDS011;13449;49.374;8.584;2023-04-24T06:50:05;3.25;;;1.90;;
24485;SDS011;13449;49.374;8.584;2023-04-24T06:52:32;4.35;;;1.88;;
24485;SDS011;13449;49.374;8.584;2023-04-24T06:55:04;5.55;;;1.67;;
24485;SDS011;13449;49.374;8.584;2023-04-24T06:57:31;1.67;;;1.58;;
24485;SDS011;13449;49.374;8.584;2023-04-24T06:59:58;2.72;;;1.95;;
24485;SDS011;13449;49.374;8.584;2023-04-24T07:02:27;1.48;;;1.38;;
24485;SDS011;13449;49.374;8.584;2023-04-24T07:04:54;2.08;;;1.38;;
24485;SDS011;13449;49.374;8.584;2023-04-24T07:07:20;0.65;;;0.65;;
24485;SDS011;13449;49.374;8.584;2023-04-24T07:09:50;2.38;;;0.70;;
24485;SDS011;13449;49.374;8.584;2023-04-24T07:12:16;7.25;;;0.90;;
24485;SDS011;13449;49.374;8.584;2023-04-24T07:14:43;3.28;;;0.93;;
24485;SDS011;13449;49.374;8.584;2023-04-24T07:17:09;1.00;;;0.80;;
24485;SDS011;13449;49.374;8.584;2023-04-24T07:19:38;1.75;;;0.80;;
24485;SDS011;13449;49.374;8.584;2023-04-24T07:22:08;1.02;;;1.00;;
24485;SDS011;13449;49.374;8.584;2023-04-24T07:24:36;0.90;;;0.90;;
24485;SDS011;13449;49.374;8.584;2023-04-24T07:27:05;0.80;;;0.60;;
24485;SDS011;13449;49.374;8.584;2023-04-24T07:29:34;2.30;;;1.02;;
24485;SDS011;13449;49.374;8.584;2023-04-24T07:32:03;1.42;;;0.80;;
24485;SDS011;13449;49.374;8.584;2023-04-24T07:34:32;2.70;;;1.00;;
24485;SDS011;13449;49.374;8.584;2023-04-24T07:37:01;1.40;;;1.15;;
24485;SDS011;13449;49.374;8.584;2023-04-24T07:39:28;2.78;;;1.30;;
24485;SDS011;13449;49.374;8.584;2023-04-24T07:41:57;3.50;;;1.23;;
24485;SDS011;13449;49.374;8.584;2023-04-24T07:44:26;3.35;;;1.10;;
24485;SDS011;13449;49.374;8.584;2023-04-24T07:46:55;1.02;;;0.95;;
24485;SDS011;13449;49.374;8.584;2023-04-24T07:49:27;3.38;;;1.20;;
24485;SDS011;13449;49.374;8.584;2023-04-24T07:51:54;1.05;;;0.95;;
24485;SDS011;13449;49.374;8.584;2023-04-24T07:54:23;4.35;;;1.65;;
24485;SDS011;13449;49.374;8.584;2023-04-24T07:56:49;1.67;;;1.30;;
24485;SDS011;13449;49.374;8.584;2023-04-24T07:59:18;3.00;;;1.33;;
24485;SDS011;13449;49.374;8.584;2023-04-24T08:01:47;4.68;;;1.00;;
24485;SDS011;13449;49.374;8.584;2023-04-24T08:04:14;3.63;;;1.80;;
24485;SDS011;13449;49.374;8.584;2023-04-24T08:06:43;2.17;;;1.35;;
24485;SDS011;13449;49.374;8.584;2023-04-24T08:09:10;5.72;;;1.20;;
24485;SDS011;13449;49.374;8.584;2023-04-24T08:11:36;4.05;;;1.50;;
24485;SDS011;13449;49.374;8.584;2023-04-24T08:14:03;2.47;;;1.48;;
24485;SDS011;13449;49.374;8.584;2023-04-24T08:16:29;1.35;;;1.10;;
24485;SDS011;13449;49.374;8.584;2023-04-24T08:18:56;2.97;;;1.67;;
24485;SDS011;13449;49.374;8.584;2023-04-24T08:21:22;3.60;;;0.95;;
24485;SDS011;13449;49.374;8.584;2023-04-24T08:23:53;1.08;;;0.60;;
24485;SDS011;13449;49.374;8.584;2023-04-24T08:26:19;1.05;;;0.95;;
24485;SDS011;13449;49.374;8.584;2023-04-24T08:28:46;1.38;;;1.10;;
24485;SDS011;13449;49.374;8.584;2023-04-24T08:31:16;1.52;;;0.80;;
24485;SDS011;13449;49.374;8.584;2023-04-24T08:33:48;3.60;;;1.13;;
24485;SDS011;13449;49.374;8.584;2023-04-24T08:36:15;1.88;;;1.40;;
24485;SDS011;13449;49.374;8.584;2023-04-24T08:38:44;1.50;;;1.30;;
24485;SDS011;13449;49.374;8.584;2023-04-24T08:41:12;0.95;;;0.90;;
24485;SDS011;13449;49.374;8.584;2023-04-24T08:43:42;3.20;;;1.15;;
24485;SDS011;13449;49.374;8.584;2023-04-24T08:46:09;1.63;;;1.05;;
24485;SDS011;13449;49.374;8.584;2023-04-24T08:48:39;1.30;;;0.80;;
24485;SDS011;13449;49.374;8.584;2023-04-24T08:51:06;3.05;;;1.10;;
24485;SDS011;13449;49.374;8.584;2023-04-24T08:53:34;2.20;;;0.90;;
24485;SDS011;13449;49.374;8.584;2023-04-24T08:56:02;2.13;;;1.17;;
24485;SDS011;13449;49.374;8.584;2023-04-24T08:58:29;3.63;;;0.95;;
24485;SDS011;13449;49.374;8.584;2023-04-24T09:00:58;1.15;;;1.05;;
24485;SDS011;13449;49.374;8.584;2023-04-24T09:03:25;2.45;;;1.20;;
24485;SDS011;13449;49.374;8.584;2023-04-24T09:05:57;1.65;;;1.55;;
24485;SDS011;13449;49.374;8.584;2023-04-24T09:08:24;5.30;;;1.17;;
24485;SDS011;13449;49.374;8.584;2023-04-24T09:10:52;4.63;;;1.42;;
24485;SDS011;13449;49.374;8.584;2023-04-24T09:13:19;2.10;;;1.10;;
24485;SDS011;13449;49.374;8.584;2023-04-24T09:15:46;3.97;;;1.10;;
24485;SDS011;13449;49.374;8.584;2023-04-24T09:18:15;1.00;;;0.95;;
24485;SDS011;13449;49.374;8.584;2023-04-24T09:21:24;3.20;;;1.50;;
24485;SDS011;13449;49.374;8.584;2023-04-24T09:23:35;3.20;;;1.30;;
24485;SDS011;13449;49.374;8.584;2023-04-24T09:26:04;1.33;;;1.15;;
24485;SDS011;13449;49.374;8.584;2023-04-24T09:28:32;1.35;;;0.95;;
24485;SDS011;13449;49.374;8.584;2023-04-24T09:33:58;2.00;;;1.02;;
24485;SDS011;13449;49.374;8.584;2023-04-24T09:36:35;1.00;;;0.85;;
24485;SDS011;13449;49.374;8.584;2023-04-24T09:39:10;2.38;;;1.20;;
24485;SDS011;13449;49.374;8.584;2023-04-24T09:41:45;3.22;;;1.10;;
24485;SDS011;13449;49.374;8.584;2023-04-24T09:44:26;1.00;;;0.90;;
24485;SDS011;13449;49.374;8.584;2023-04-24T09:46:57;1.50;;;1.40;;
24485;SDS011;13449;49.374;8.584;2023-04-24T09:49:28;1.30;;;1.08;;
24485;SDS011;13449;49.374;8.584;2023-04-24T09:52:06;2.75;;;1.05;;
24485;SDS011;13449;49.374;8.584;2023-04-24T09:54:37;1.85;;;1.10;;
24485;SDS011;13449;49.374;8.584;2023-04-24T09:57:04;3.00;;;1.35;;
24485;SDS011;13449;49.374;8.584;2023-04-24T09:59:31;2.55;;;1.50;;
24485;SDS011;13449;49.374;8.584;2023-04-24T10:01:57;3.08;;;1.70;;
24485;SDS011;13449;49.374;8.584;2023-04-24T10:04:26;5.00;;;2.25;;
24485;SDS011;13449;49.374;8.584;2023-04-24T10:06:56;3.45;;;3.10;;
24485;SDS011;13449;49.374;8.584;2023-04-24T10:09:24;13.25;;;5.10;;
24485;SDS011;13449;49.374;8.584;2023-04-24T10:11:55;13.50;;;7.25;;
24485;SDS011;13449;49.374;8.584;2023-04-24T10:14:22;14.27;;;7.57;;
24485;SDS011;13449;49.374;8.584;2023-04-24T10:16:52;10.68;;;5.15;;
24485;SDS011;13449;49.374;8.584;2023-04-24T10:19:25;11.48;;;4.88;;
24485;SDS011;13449;49.374;8.584;2023-04-24T10:21:52;6.22;;;3.15;;
24485;SDS011;13449;49.374;8.584;2023-04-24T10:24:19;5.65;;;3.33;;
24485;SDS011;13449;49.374;8.584;2023-04-24T10:26:48;2.55;;;2.35;;
24485;SDS011;13449;49.374;8.584;2023-04-24T10:29:17;4.63;;;1.50;;
24485;SDS011;13449;49.374;8.584;2023-04-24T10:31:45;1.67;;;1.58;;
24485;SDS011;13449;49.374;8.584;2023-04-24T10:34:14;0.82;;;0.77;;
24485;SDS011;13449;49.374;8.584;2023-04-24T10:36:45;1.20;;;0.98;;
24485;SDS011;13449;49.374;8.584;2023-04-24T10:39:16;1.05;;;0.70;;
24485;SDS011;13449;49.374;8.584;2023-04-24T10:41:53;0.85;;;0.85;;
24485;SDS011;13449;49.374;8.584;2023-04-24T10:44:20;1.10;;;0.73;;
24485;SDS011;13449;49.374;8.584;2023-04-24T10:46:52;2.63;;;0.98;;
24485;SDS011;13449;49.374;8.584;2023-04-24T10:49:27;1.30;;;1.05;;
24485;SDS011;13449;49.374;8.584;2023-04-24T10:51:59;2.58;;;1.38;;
24485;SDS011;13449;49.374;8.584;2023-04-24T10:54:28;1.92;;;1.50;;
24485;SDS011;13449;49.374;8.584;2023-04-24T10:59:49;5.78;;;1.40;;
24485;SDS011;13449;49.374;8.584;2023-04-24T11:02:17;2.42;;;1.70;;
24485;SDS011;13449;49.374;8.584;2023-04-24T11:04:44;2.08;;;1.55;;
24485;SDS011;13449;49.374;8.584;2023-04-24T11:07:11;1.88;;;1.67;;
24485;SDS011;13449;49.374;8.584;2023-04-24T11:09:41;3.35;;;2.28;;
24485;SDS011;13449;49.374;8.584;2023-04-24T11:12:09;6.95;;;2.78;;
24485;SDS011;13449;49.374;8.584;2023-04-24T11:20:00;5.20;;;3.22;;
24485;SDS011;13449;49.374;8.584;2023-04-24T11:22:44;8.98;;;5.65;;
24485;SDS011;13449;49.374;8.584;2023-04-24T11:25:10;4.03;;;2.95;;
24485;SDS011;13449;49.374;8.584;2023-04-24T11:27:39;4.82;;;2.58;;
24485;SDS011;13449;49.374;8.584;2023-04-24T11:30:06;1.42;;;1.33;;
24485;SDS011;13449;49.374;8.584;2023-04-24T11:35:13;2.97;;;1.98;;
24485;SDS011;13449;49.374;8.584;2023-04-24T11:37:43;2.47;;;2.10;;
24485;SDS011;13449;49.374;8.584;2023-04-24T11:40:20;2.03;;;1.83;;
24485;SDS011;13449;49.374;8.584;2023-04-24T11:42:53;4.22;;;2.10;;
24485;SDS011;13449;49.374;8.584;2023-04-24T11:45:27;2.95;;;2.17;;
24485;SDS011;13449;49.374;8.584;2023-04-24T11:47:58;2.33;;;1.80;;
24485;SDS011;13449;49.374;8.584;2023-04-24T11:50:25;2.53;;;2.03;;
24485;SDS011;13449;49.374;8.584;2023-04-24T11:52:54;2.20;;;2.00;;
24485;SDS011;13449;49.374;8.584;2023-04-24T11:57:53;3.25;;;1.90;;
24485;SDS011;13449;49.374;8.584;2023-04-24T12:00:26;3.25;;;2.40;;
24485;SDS011;13449;49.374;8.584;2023-04-24T12:03:31;6.78;;;1.90;;
24485;SDS011;13449;49.374;8.584;2023-04-24T12:05:51;4.53;;;1.90;;
24485;SDS011;13449;49.374;8.584;2023-04-24T12:08:30;6.88;;;1.98;;
24485;SDS011;13449;49.374;8.584;2023-04-24T12:10:59;3.03;;;2.35;;
24485;SDS011;13449;49.374;8.584;2023-04-24T12:13:27;6.43;;;1.90;;
24485;SDS011;13449;49.374;8.584;2023-04-24T12:15:58;3.22;;;2.17;;
24485;SDS011;13449;49.374;8.584;2023-04-24T12:18:27;5.72;;;2.15;;
24485;SDS011;13449;49.374;8.584;2023-04-24T12:21:03;4.15;;;1.90;;
24485;SDS011;13449;49.374;8.584;2023-04-24T12:23:42;5.82;;;2.17;;
24485;SDS011;13449;49.374;8.584;2023-04-24T12:26:15;1.90;;;1.80;;
24485;SDS011;13449;49.374;8.584;2023-04-24T12:28:45;3.42;;;1.73;;
24485;SDS011;13449;49.374;8.584;2023-04-24T12:31:15;2.40;;;2.20;;
24485;SDS011;13449;49.374;8.584;2023-04-24T12:33:42;2.83;;;1.90;;
24485;SDS011;13449;49.374;8.584;2023-04-24T12:36:10;10.43;;;2.05;;
24485;SDS011;13449;49.374;8.584;2023-04-24T12:38:43;3.67;;;1.98;;
24485;SDS011;13449;49.374;8.584;2023-04-24T12:41:11;5.07;;;1.90;;
24485;SDS011;13449;49.374;8.584;2023-04-24T12:43:50;3.00;;;1.75;;
24485;SDS011;13449;49.374;8.584;2023-04-24T12:46:20;3.22;;;1.80;;
24485;SDS011;13449;49.374;8.584;2023-04-24T12:48:48;3.97;;;1.70;;
24485;SDS011;13449;49.374;8.584;2023-04-24T12:51:14;2.75;;;1.98;;
24485;SDS011;13449;49.374;8.584;2023-04-24T12:53:40;5.97;;;1.90;;
24485;SDS011;13449;49.374;8.584;2023-04-24T12:56:07;7.00;;;1.75;;
24485;SDS011;13449;49.374;8.584;2023-04-24T12:58:34;2.33;;;1.90;;
24485;SDS011;13449;49.374;8.584;2023-04-24T13:01:00;5.80;;;2.00;;
24485;SDS011;13449;49.374;8.584;2023-04-24T13:03:27;3.70;;;1.67;;
24485;SDS011;13449;49.374;8.584;2023-04-24T13:05:56;3.60;;;2.13;;
24485;SDS011;13449;49.374;8.584;2023-04-24T13:08:22;4.07;;;1.92;;
24485;SDS011;13449;49.374;8.584;2023-04-24T13:10:49;2.15;;;1.52;;
24485;SDS011;13449;49.374;8.584;2023-04-24T13:13:19;2.83;;;2.10;;
24485;SDS011;13449;49.374;8.584;2023-04-24T13:15:46;4.30;;;1.77;;
24485;SDS011;13449;49.374;8.584;2023-04-24T13:18:13;5.90;;;1.70;;
24485;SDS011;13449;49.374;8.584;2023-04-24T13:20:39;4.28;;;2.10;;
24485;SDS011;13449;49.374;8.584;2023-04-24T13:23:07;2.60;;;1.90;;
24485;SDS011;13449;49.374;8.584;2023-04-24T13:25:36;7.78;;;2.00;;
24485;SDS011;13449;49.374;8.584;2023-04-24T13:28:05;2.85;;;1.67;;
24485;SDS011;13449;49.374;8.584;2023-04-24T13:30:31;3.25;;;1.80;;
24485;SDS011;13449;49.374;8.584;2023-04-24T13:32:58;5.88;;;1.92;;
24485;SDS011;13449;49.374;8.584;2023-04-24T13:35:27;2.95;;;1.80;;
24485;SDS011;13449;49.374;8.584;2023-04-24T13:37:53;2.08;;;1.60;;
24485;SDS011;13449;49.374;8.584;2023-04-24T13:40:20;8.80;;;1.85;;
24485;SDS011;13449;49.374;8.584;2023-04-24T13:42:46;1.67;;;1.20;;
24485;SDS011;13449;49.374;8.584;2023-04-24T13:45:15;2.72;;;1.75;;
24485;SDS011;13449;49.374;8.584;2023-04-24T13:47:50;6.68;;;1.60;;
24485;SDS011;13449;49.374;8.584;2023-04-24T13:50:20;1.50;;;1.13;;
24485;SDS011;13449;49.374;8.584;2023-04-24T13:52:52;4.38;;;1.50;;
24485;SDS011;13449;49.374;8.584;2023-04-24T13:55:19;2.78;;;1.63;;
24485;SDS011;13449;49.374;8.584;2023-04-24T13:57:45;1.27;;;1.17;;
24485;SDS011;13449;49.374;8.584;2023-04-24T14:00:12;4.15;;;1.70;;
24485;SDS011;13449;49.374;8.584;2023-04-24T14:02:39;2.08;;;1.50;;
24485;SDS011;13449;49.374;8.584;2023-04-24T14:05:06;8.52;;;2.03;;
24485;SDS011;13449;49.374;8.584;2023-04-24T14:07:33;3.00;;;2.40;;
24485;SDS011;13449;49.374;8.584;2023-04-24T14:09:59;4.32;;;1.65;;
24485;SDS011;13449;49.374;8.584;2023-04-24T14:12:28;2.30;;;1.63;;
24485;SDS011;13449;49.374;8.584;2023-04-24T14:14:55;3.58;;;2.17;;
24485;SDS011;13449;49.374;8.584;2023-04-24T14:17:21;4.00;;;2.25;;
24485;SDS011;13449;49.374;8.584;2023-04-24T14:19:48;2.47;;;1.50;;
24485;SDS011;13449;49.374;8.584;2023-04-24T14:22:14;1.92;;;1.65;;
24485;SDS011;13449;49.374;8.584;2023-04-24T14:24:41;4.03;;;1.80;;
24485;SDS011;13449;49.374;8.584;2023-04-24T14:27:07;2.22;;;1.20;;
24485;SDS011;13449;49.374;8.584;2023-04-24T14:29:36;8.05;;;1.63;;
24485;SDS011;13449;49.374;8.584;2023-04-24T14:32:02;1.88;;;1.40;;
24485;SDS011;13449;49.374;8.584;2023-04-24T14:34:31;5.47;;;1.92;;
24485;SDS011;13449;49.374;8.584;2023-04-24T14:37:00;3.60;;;1.80;;
24485;SDS011;13449;49.374;8.584;2023-04-24T14:39:27;1.83;;;1.70;;
24485;SDS011;13449;49.374;8.584;2023-04-24T14:41:54;3.78;;;1.30;;
24485;SDS011;13449;49.374;8.584;2023-04-24T14:44:21;3.38;;;1.48;;
24485;SDS011;13449;49.374;8.584;2023-04-24T14:46:48;4.45;;;1.58;;
24485;SDS011;13449;49.374;8.584;2023-04-24T14:49:15;1.88;;;1.05;;
24485;SDS011;13449;49.374;8.584;2023-04-24T14:51:43;2.35;;;1.67;;
24485;SDS011;13449;49.374;8.584;2023-04-24T14:54:12;4.97;;;1.60;;
24485;SDS011;13449;49.374;8.584;2023-04-24T14:56:39;5.15;;;2.00;;
24485;SDS011;13449;49.374;8.584;2023-04-24T14:59:07;3.15;;;1.58;;
24485;SDS011;13449;49.374;8.584;2023-04-24T15:01:33;4.90;;;1.70;;
24485;SDS011;13449;49.374;8.584;2023-04-24T15:04:02;7.85;;;1.52;;
24485;SDS011;13449;49.374;8.584;2023-04-24T15:06:31;1.80;;;1.30;;
24485;SDS011;13449;49.374;8.584;2023-04-24T15:08:58;1.98;;;1.77;;
24485;SDS011;13449;49.374;8.584;2023-04-24T15:11:24;2.28;;;1.80;;